Time;durP1;ratioP1;P1;durP2;ratioP2;P2;SDS_P1;SDS_P2;PMS_P1;PMS_P2;Temp;Humidity;BMP_temperature;BMP_pressure;BME280_temperature;BME280_humidity;BME280_pressure;Samples;Min_cycle;Max_cycle;Signal;HPM_P1;HPM_P2
2022/03/19 00:00:21;;;;;;;124.70;40.97;;;;;;;;;;6206058;28;20042;-62
2022/03/19 00:03:41;;;;;;;118.72;41.33;;;;;;;;;;6204289;28;20050;-63
2022/03/19 00:06:45;;;;;;;133.25;43.95;;;;;;;;;;6205935;28;20042;-69
2022/03/19 00:09:46;;;;;;;123.22;42.08;;;;;;;;;;6215949;28;20041;-66
2022/03/19 00:12:48;;;;;;;116.30;42.08;;;;;;;;;;6208557;28;20137;-67
2022/03/19 00:15:50;;;;;;;132.00;42.05;;;;;;;;;;6213407;28;20038;-63
2022/03/19 00:18:51;;;;;;;117.65;41.20;;;;;;;;;;6213907;28;20387;-67
2022/03/19 00:21:51;;;;;;;123.00;41.15;;;;;;;;;;6206900;28;20053;-65
2022/03/19 00:24:52;;;;;;;123.90;41.35;;;;;;;;;;6214153;28;20042;-65
2022/03/19 00:27:53;;;;;;;122.20;40.88;;;;;;;;;;6207530;28;20512;-64
2022/03/19 00:30:53;;;;;;;121.68;43.53;;;;;;;;;;6206685;28;20084;-67
2022/03/19 00:33:55;;;;;;;110.18;40.17;;;;;;;;;;6203927;28;20046;-63
2022/03/19 00:36:56;;;;;;;120.82;41.75;;;;;;;;;;6204161;28;20276;-66
2022/03/19 00:39:56;;;;;;;114.38;41.13;;;;;;;;;;6200244;28;20046;-64
2022/03/19 00:42:57;;;;;;;126.53;42.45;;;;;;;;;;6197809;28;20184;-68
2022/03/19 00:45:58;;;;;;;121.00;41.45;;;;;;;;;;6197505;28;20042;-65
2022/03/19 00:48:59;;;;;;;123.38;41.85;;;;;;;;;;6198084;28;20134;-65
2022/03/19 00:52:00;;;;;;;123.43;43.40;;;;;;;;;;6208448;28;20471;-65
2022/03/19 00:55:01;;;;;;;117.85;41.92;;;;;;;;;;6215683;28;20398;-66
2022/03/19 00:58:02;;;;;;;124.47;44.08;;;;;;;;;;6216381;28;20042;-66
2022/03/19 01:01:03;;;;;;;133.65;43.58;;;;;;;;;;6216589;28;20092;-64
2022/03/19 01:04:04;;;;;;;133.68;44.03;;;;;;;;;;6211529;28;20501;-64
2022/03/19 01:07:04;;;;;;;126.18;42.08;;;;;;;;;;6214871;28;20901;-65
2022/03/19 01:10:06;;;;;;;122.85;42.20;;;;;;;;;;6218895;28;20053;-66
2022/03/19 01:13:08;;;;;;;127.50;43.38;;;;;;;;;;6190259;28;20402;-66
2022/03/19 01:16:08;;;;;;;119.50;40.77;;;;;;;;;;6183378;28;20579;-63
2022/03/19 01:19:09;;;;;;;123.13;42.35;;;;;;;;;;6184563;28;20050;-63
2022/03/19 01:22:10;;;;;;;126.63;42.05;;;;;;;;;;6178865;28;20460;-63
2022/03/19 01:25:12;;;;;;;130.80;45.05;;;;;;;;;;6178383;28;20417;-63
2022/03/19 01:28:13;;;;;;;140.57;48.42;;;;;;;;;;6180946;28;20054;-63
2022/03/19 01:31:13;;;;;;;127.68;43.58;;;;;;;;;;6177764;28;20639;-63
2022/03/19 01:34:14;;;;;;;147.15;45.20;;;;;;;;;;6181280;28;20474;-65
2022/03/19 01:37:15;;;;;;;136.95;47.20;;;;;;;;;;6181967;28;20057;-69
2022/03/19 01:40:17;;;;;;;140.52;47.03;;;;;;;;;;6181848;28;20523;-64
2022/03/19 01:43:18;;;;;;;;;;;;;;;;;;6181620;28;20439;-64
2022/03/19 01:46:19;;;;;;;139.25;47.05;;;;;;;;;;6183866;28;19936;-65
2022/03/19 01:49:20;;;;;;;138.40;47.97;;;;;;;;;;6181353;28;20054;-63
2022/03/19 01:52:21;;;;;;;144.13;49.55;;;;;;;;;;6177422;28;20046;-63
2022/03/19 01:55:24;;;;;;;154.65;50.97;;;;;;;;;;6184138;28;20050;-62
2022/03/19 01:58:25;;;;;;;145.60;51.45;;;;;;;;;;6182596;28;20402;-64
2022/03/19 02:01:26;;;;;;;155.52;51.03;;;;;;;;;;6181086;28;20125;-63
2022/03/19 02:04:27;;;;;;;146.48;48.50;;;;;;;;;;6180148;28;20059;-62
2022/03/19 02:07:28;;;;;;;149.93;47.60;;;;;;;;;;6182953;28;20046;-63
2022/03/19 02:10:29;;;;;;;145.65;49.28;;;;;;;;;;6185765;28;20087;-63
2022/03/19 02:13:30;;;;;;;131.43;47.40;;;;;;;;;;6172022;28;20073;-65
2022/03/19 02:16:31;;;;;;;140.88;47.88;;;;;;;;;;6181244;28;20046;-63
2022/03/19 02:19:32;;;;;;;132.90;48.20;;;;;;;;;;6189365;28;20153;-68
2022/03/19 02:22:33;;;;;;;136.87;46.40;;;;;;;;;;6183037;28;20081;-64
2022/03/19 02:25:37;;;;;;;132.88;47.85;;;;;;;;;;6182624;28;20035;-62
2022/03/19 02:28:37;;;;;;;131.52;45.85;;;;;;;;;;6179232;28;20089;-62
2022/03/19 02:31:40;;;;;;;126.63;45.38;;;;;;;;;;6183116;28;20042;-62
2022/03/19 02:34:41;;;;;;;145.88;47.70;;;;;;;;;;6179975;28;20046;-63
2022/03/19 02:37:45;;;;;;;149.43;48.75;;;;;;;;;;6180631;28;20444;-63
2022/03/19 02:40:46;;;;;;;128.95;44.17;;;;;;;;;;6181636;28;20061;-63
2022/03/19 02:43:48;;;;;;;129.70;46.42;;;;;;;;;;6182686;28;20042;-64
2022/03/19 02:46:53;;;;;;;130.38;43.95;;;;;;;;;;6177023;28;20105;-64
2022/03/19 02:49:53;;;;;;;139.73;48.00;;;;;;;;;;6178734;28;20047;-64
2022/03/19 02:52:55;;;;;;;137.48;48.47;;;;;;;;;;6177834;28;20042;-64
2022/03/19 02:55:56;;;;;;;141.77;48.63;;;;;;;;;;6177349;28;20469;-65
2022/03/19 02:58:56;;;;;;;149.55;47.45;;;;;;;;;;6177076;28;20101;-64
2022/03/19 03:01:59;;;;;;;138.55;46.08;;;;;;;;;;6176884;28;20497;-66
2022/03/19 03:05:00;;;;;;;133.18;44.70;;;;;;;;;;6180104;28;20154;-64
2022/03/19 03:08:01;;;;;;;132.48;47.33;;;;;;;;;;6178026;28;20054;-64
2022/03/19 03:11:02;;;;;;;144.93;45.97;;;;;;;;;;6179939;28;20170;-65
2022/03/19 03:14:04;;;;;;;132.98;44.40;;;;;;;;;;6178918;28;20054;-65
2022/03/19 03:17:05;;;;;;;119.47;42.67;;;;;;;;;;6182265;28;20580;-65
2022/03/19 03:20:09;;;;;;;129.20;44.50;;;;;;;;;;6179141;28;20061;-63
2022/03/19 03:23:11;;;;;;;133.23;47.05;;;;;;;;;;6174688;28;20050;-64
2022/03/19 03:26:11;;;;;;;139.00;46.58;;;;;;;;;;6180788;28;20137;-64
2022/03/19 03:29:14;;;;;;;126.95;45.83;;;;;;;;;;6174604;28;20152;-66
2022/03/19 03:32:14;;;;;;;133.15;46.45;;;;;;;;;;6178036;28;20057;-64
2022/03/19 03:35:15;;;;;;;116.60;43.47;;;;;;;;;;6175093;28;20051;-64
2022/03/19 03:38:16;;;;;;;117.78;43.40;;;;;;;;;;6179105;28;20125;-65
2022/03/19 03:41:17;;;;;;;128.43;46.60;;;;;;;;;;6180747;28;20165;-63
2022/03/19 03:44:17;;;;;;;122.30;43.95;;;;;;;;;;6178910;28;20090;-64
2022/03/19 03:47:18;;;;;;;129.15;46.05;;;;;;;;;;6178213;28;20395;-69
2022/03/19 03:50:20;;;;;;;122.88;44.53;;;;;;;;;;6182968;28;20054;-63
2022/03/19 03:53:23;;;;;;;115.50;43.30;;;;;;;;;;6180697;28;20057;-66
2022/03/19 03:56:23;;;;;;;128.82;44.55;;;;;;;;;;6178436;28;20043;-64
2022/03/19 03:59:24;;;;;;;122.30;43.85;;;;;;;;;;6178581;28;20046;-66
2022/03/19 04:02:25;;;;;;;123.05;43.35;;;;;;;;;;6178507;28;20571;-64
2022/03/19 04:05:26;;;;;;;122.38;41.13;;;;;;;;;;6186649;28;20053;-63
2022/03/19 04:08:27;;;;;;;99.97;37.35;;;;;;;;;;6179073;28;20137;-64
2022/03/19 04:11:27;;;;;;;107.53;39.08;;;;;;;;;;6177842;28;20042;-63
2022/03/19 04:14:28;;;;;;;108.32;39.42;;;;;;;;;;6177575;28;20519;-63
2022/03/19 04:17:29;;;;;;;137.90;43.67;;;;;;;;;;6176071;28;20042;-64
2022/03/19 04:20:30;;;;;;;106.97;39.42;;;;;;;;;;6181760;28;20521;-64
2022/03/19 04:23:30;;;;;;;99.25;37.58;;;;;;;;;;6178039;28;20696;-63
2022/03/19 04:26:31;;;;;;;109.80;37.53;;;;;;;;;;6178303;28;20753;-64
2022/03/19 04:29:31;;;;;;;106.35;39.67;;;;;;;;;;6179734;28;20039;-64
2022/03/19 04:32:32;;;;;;;116.03;41.35;;;;;;;;;;6178512;28;20054;-65
2022/03/19 04:38:52;;;;;;;112.05;39.58;;;;;;;;;;6178450;28;20042;-66
2022/03/19 04:41:53;;;;;;;104.03;40.25;;;;;;;;;;6174376;28;20469;-64
2022/03/19 04:44:55;;;;;;;99.22;37.92;;;;;;;;;;6175999;28;20092;-63
2022/03/19 04:47:56;;;;;;;104.97;39.67;;;;;;;;;;6176988;28;20410;-64
2022/03/19 04:50:57;;;;;;;115.05;39.42;;;;;;;;;;6178561;28;20417;-64
2022/03/19 04:53:59;;;;;;;108.07;40.15;;;;;;;;;;6179033;28;20050;-63
2022/03/19 04:57:02;;;;;;;;;;;;;;;;;;6178376;28;20066;-67
2022/03/19 05:00:06;;;;;;;97.95;37.65;;;;;;;;;;6176484;28;20011;-66
2022/03/19 05:03:07;;;;;;;120.07;40.28;;;;;;;;;;6176640;28;20710;-67
2022/03/19 05:06:08;;;;;;;123.78;42.83;;;;;;;;;;6176857;28;20761;-65
2022/03/19 05:12:43;;;;;;;124.20;41.50;;;;;;;;;;6177499;28;20078;-64
2022/03/19 05:15:44;;;;;;;126.65;41.47;;;;;;;;;;6176129;28;20053;-65
2022/03/19 05:18:45;;;;;;;129.75;41.33;;;;;;;;;;6176221;28;20477;-65
2022/03/19 05:21:46;;;;;;;129.40;41.95;;;;;;;;;;6178182;28;20125;-68
2022/03/19 05:24:49;;;;;;;122.03;41.08;;;;;;;;;;6175858;28;20051;-66
2022/03/19 05:27:51;;;;;;;125.05;42.65;;;;;;;;;;6173649;28;20551;-64
2022/03/19 05:30:57;;;;;;;123.78;40.20;;;;;;;;;;6177736;28;20046;-63
2022/03/19 05:37:17;;;;;;;115.88;38.38;;;;;;;;;;6183732;28;20046;-64
2022/03/19 05:40:18;;;;;;;99.03;37.45;;;;;;;;;;6187937;28;20122;-63
2022/03/19 05:43:18;;;;;;;90.50;35.05;;;;;;;;;;6199129;28;20058;-65
2022/03/19 05:46:19;;;;;;;86.75;34.10;;;;;;;;;;6182413;28;20320;-65
2022/03/19 05:49:20;;;;;;;96.05;34.90;;;;;;;;;;6207056;28;20045;-64
2022/03/19 05:52:21;;;;;;;85.65;33.35;;;;;;;;;;6208926;28;20536;-64
2022/03/19 05:55:21;;;;;;;80.20;31.33;;;;;;;;;;6213914;28;20373;-64
2022/03/19 05:58:22;;;;;;;70.63;29.52;;;;;;;;;;6208550;28;20136;-65
2022/03/19 06:01:26;;;;;;;80.80;30.33;;;;;;;;;;6207706;28;20501;-65
2022/03/19 06:04:26;;;;;;;79.57;29.13;;;;;;;;;;6201564;28;20565;-70
2022/03/19 06:07:27;;;;;;;74.47;30.98;;;;;;;;;;6181584;28;20050;-67
2022/03/19 06:10:27;;;;;;;86.18;31.88;;;;;;;;;;6180399;28;20138;-72
2022/03/19 06:13:28;;;;;;;71.60;28.80;;;;;;;;;;6191557;28;20051;-71
2022/03/19 06:16:29;;;;;;;70.32;30.05;;;;;;;;;;6195151;28;20099;-74
2022/03/19 06:19:29;;;;;;;74.13;29.98;;;;;;;;;;6194926;28;20715;-69
2022/03/19 06:22:30;;;;;;;74.28;31.17;;;;;;;;;;6182912;28;20046;-67
2022/03/19 06:25:31;;;;;;;74.55;30.45;;;;;;;;;;6178505;28;20134;-70
2022/03/19 06:28:31;;;;;;;84.05;31.45;;;;;;;;;;6181496;28;20504;-67
2022/03/19 06:31:33;;;;;;;81.65;31.23;;;;;;;;;;6187600;28;20544;-71
2022/03/19 06:34:33;;;;;;;81.20;32.80;;;;;;;;;;6189172;28;20046;-76
2022/03/19 06:37:34;;;;;;;78.00;32.72;;;;;;;;;;6209335;28;21944;-72
2022/03/19 06:40:35;;;;;;;69.22;29.50;;;;;;;;;;6199397;28;20052;-73
2022/03/19 06:43:37;;;;;;;83.72;32.80;;;;;;;;;;6194085;28;20053;-76
2022/03/19 06:46:38;;;;;;;76.05;30.77;;;;;;;;;;6177639;28;20050;-73
2022/03/19 06:49:38;;;;;;;72.57;31.50;;;;;;;;;;6185363;28;20445;-66
2022/03/19 06:52:39;;;;;;;72.53;30.67;;;;;;;;;;6194912;28;20046;-70
2022/03/19 06:55:43;;;;;;;71.47;30.58;;;;;;;;;;6186209;28;20050;-69
2022/03/19 06:58:44;;;;;;;70.97;30.05;;;;;;;;;;6180342;28;20145;-67
2022/03/19 07:01:44;;;;;;;74.80;31.50;;;;;;;;;;6185223;28;20070;-71
2022/03/19 07:04:45;;;;;;;83.82;32.70;;;;;;;;;;6184239;28;20068;-70
2022/03/19 07:07:46;;;;;;;70.57;30.45;;;;;;;;;;6183584;28;20397;-70
2022/03/19 07:10:48;;;;;;;66.93;29.77;;;;;;;;;;6181044;28;20374;-72
2022/03/19 07:13:49;;;;;;;77.45;31.58;;;;;;;;;;6177345;28;20054;-72
2022/03/19 07:16:51;;;;;;;76.72;29.92;;;;;;;;;;6179597;28;20121;-70
2022/03/19 07:19:52;;;;;;;74.32;29.98;;;;;;;;;;6181055;28;20067;-73
2022/03/19 07:23:01;;;;;;;75.18;28.02;;;;;;;;;;6181523;28;20047;-70
2022/03/19 07:26:02;;;;;;;66.88;28.60;;;;;;;;;;6182343;28;20435;-72
2022/03/19 07:29:03;;;;;;;66.30;27.58;;;;;;;;;;6183586;28;20066;-69
2022/03/19 07:32:04;;;;;;;59.35;26.50;;;;;;;;;;6186667;28;20485;-71
2022/03/19 07:35:06;;;;;;;64.85;27.00;;;;;;;;;;6180601;28;20057;-71
2022/03/19 07:38:08;;;;;;;63.70;25.15;;;;;;;;;;6188033;28;20061;-72
2022/03/19 07:44:30;;;;;;;59.70;23.98;;;;;;;;;;6183632;28;20080;-70
2022/03/19 07:47:32;;;;;;;53.83;23.67;;;;;;;;;;6181622;28;20050;-74
2022/03/19 07:50:33;;;;;;;48.95;21.00;;;;;;;;;;6184171;28;20212;-74
2022/03/19 07:53:34;;;;;;;54.35;21.60;;;;;;;;;;6181943;28;20055;-71
2022/03/19 07:56:34;;;;;;;45.65;19.13;;;;;;;;;;6177626;28;20132;-72
2022/03/19 07:59:35;;;;;;;48.13;20.88;;;;;;;;;;6177691;28;20679;-74
2022/03/19 08:02:36;;;;;;;56.83;22.05;;;;;;;;;;6182174;28;20566;-72
2022/03/19 08:05:36;;;;;;;41.22;20.23;;;;;;;;;;6181912;28;20125;-73
2022/03/19 08:08:40;;;;;;;43.10;19.40;;;;;;;;;;6179361;28;20050;-75
2022/03/19 08:11:42;;;;;;;42.05;18.10;;;;;;;;;;6177268;28;20054;-72
2022/03/19 08:14:43;;;;;;;38.22;18.40;;;;;;;;;;6176799;28;20568;-72
2022/03/19 08:17:44;;;;;;;32.88;16.02;;;;;;;;;;6178264;28;20046;-74
2022/03/19 08:20:46;;;;;;;35.28;15.20;;;;;;;;;;6176005;28;20535;-73
2022/03/19 08:23:47;;;;;;;27.27;12.80;;;;;;;;;;6179674;28;20050;-72
2022/03/19 08:26:47;;;;;;;25.75;13.77;;;;;;;;;;6180139;28;20104;-71
2022/03/19 08:29:48;;;;;;;26.55;11.55;;;;;;;;;;6182756;28;20442;-72
2022/03/19 08:32:49;;;;;;;25.35;10.40;;;;;;;;;;6176777;28;20157;-72
2022/03/19 08:35:50;;;;;;;27.92;10.95;;;;;;;;;;6180080;28;20042;-74
2022/03/19 08:42:10;;;;;;;19.42;10.50;;;;;;;;;;6180163;28;20145;-73
2022/03/19 08:45:11;;;;;;;21.58;10.32;;;;;;;;;;6180987;28;20759;-73
2022/03/19 08:48:13;;;;;;;25.48;11.32;;;;;;;;;;6180730;28;20489;-72
2022/03/19 08:54:33;;;;;;;23.70;9.95;;;;;;;;;;6181465;28;20391;-71
2022/03/19 08:57:34;;;;;;;24.88;10.32;;;;;;;;;;6180361;28;20050;-72
2022/03/19 09:00:37;;;;;;;49.75;11.18;;;;;;;;;;6177507;28;20177;-71
2022/03/19 09:03:37;;;;;;;18.88;9.23;;;;;;;;;;6181848;28;20081;-74
2022/03/19 09:06:38;;;;;;;22.17;8.75;;;;;;;;;;6180274;28;20137;-71
2022/03/19 09:09:41;;;;;;;24.73;9.32;;;;;;;;;;6181147;28;20042;-73
2022/03/19 09:12:41;;;;;;;24.08;9.90;;;;;;;;;;6179848;28;20974;-71
2022/03/19 09:15:42;;;;;;;20.33;8.98;;;;;;;;;;6182635;28;20036;-71
2022/03/19 09:18:43;;;;;;;21.05;10.85;;;;;;;;;;6178628;28;20047;-71
2022/03/19 09:21:44;;;;;;;20.58;9.63;;;;;;;;;;6179362;28;20559;-72
2022/03/19 09:24:44;;;;;;;22.15;9.63;;;;;;;;;;6182673;28;20054;-73
2022/03/19 09:27:45;;;;;;;21.73;10.55;;;;;;;;;;6184029;28;20058;-73
2022/03/19 09:30:46;;;;;;;23.92;10.02;;;;;;;;;;6184227;28;20042;-72
2022/03/19 09:33:47;;;;;;;21.88;10.40;;;;;;;;;;6183234;28;20047;-73
2022/03/19 09:36:48;;;;;;;20.27;9.77;;;;;;;;;;6185128;28;20039;-72
2022/03/19 09:39:49;;;;;;;21.45;10.20;;;;;;;;;;6182079;28;20507;-72
2022/03/19 09:42:53;;;;;;;19.97;9.07;;;;;;;;;;6180950;28;20042;-72
2022/03/19 09:45:54;;;;;;;20.35;9.30;;;;;;;;;;6186892;28;20047;-72
2022/03/19 09:48:54;;;;;;;18.30;10.00;;;;;;;;;;6177645;28;20138;-72
2022/03/19 09:51:58;;;;;;;21.48;10.15;;;;;;;;;;6185129;28;20052;-72
2022/03/19 09:55:02;;;;;;;18.90;10.02;;;;;;;;;;6184079;28;20057;-72
2022/03/19 09:58:03;;;;;;;22.63;9.88;;;;;;;;;;6183863;28;20051;-72
2022/03/19 10:01:05;;;;;;;17.40;8.80;;;;;;;;;;6193871;28;20145;-70
2022/03/19 10:04:07;;;;;;;;;;;;;;;;;;6213117;28;20069;-69
2022/03/19 10:10:31;;;;;;;20.25;10.20;;;;;;;;;;6215520;28;20050;-72
2022/03/19 10:13:31;;;;;;;26.27;11.23;;;;;;;;;;6206373;28;20072;-73
2022/03/19 10:16:35;;;;;;;21.90;10.07;;;;;;;;;;6203686;28;20078;-68
2022/03/19 10:19:51;;;;;;;22.00;10.95;;;;;;;;;;6211084;28;20041;-72
2022/03/19 10:22:52;;;;;;;23.92;10.70;;;;;;;;;;6208410;28;20057;-72
2022/03/19 10:25:52;;;;;;;20.23;10.25;;;;;;;;;;6213068;28;20460;-70
2022/03/19 10:29:00;;;;;;;19.83;10.38;;;;;;;;;;6213382;28;21058;-70
2022/03/19 10:32:04;;;;;;;21.08;10.15;;;;;;;;;;6213497;28;20054;-67
2022/03/19 10:35:05;;;;;;;19.48;9.48;;;;;;;;;;6207663;28;20050;-68
2022/03/19 10:38:27;;;;;;;20.10;8.00;;;;;;;;;;6207721;28;20137;-68
2022/03/19 10:41:34;;;;;;;19.73;8.55;;;;;;;;;;6211346;28;20045;-69
2022/03/19 10:44:38;;;;;;;29.98;11.82;;;;;;;;;;6208121;28;20089;-69
2022/03/19 10:47:44;;;;;;;17.38;9.68;;;;;;;;;;6208082;28;20076;-72
2022/03/19 10:50:45;;;;;;;36.63;12.80;;;;;;;;;;6209840;28;20092;-69
2022/03/19 10:53:48;;;;;;;16.02;8.07;;;;;;;;;;6210077;28;20054;-66
2022/03/19 10:56:51;;;;;;;16.90;7.32;;;;;;;;;;6214058;28;20132;-66
2022/03/19 10:59:52;;;;;;;13.95;7.13;;;;;;;;;;6207994;28;20042;-74
2022/03/19 11:02:57;;;;;;;15.73;7.70;;;;;;;;;;6210848;28;20146;-66
2022/03/19 11:06:06;;;;;;;24.38;10.35;;;;;;;;;;6172766;28;20126;-67
2022/03/19 11:09:10;;;;;;;30.40;11.13;;;;;;;;;;6171686;28;20429;-68
2022/03/19 11:12:17;;;;;;;31.50;10.30;;;;;;;;;;6182378;28;20519;-68
2022/03/19 11:15:19;;;;;;;18.25;7.65;;;;;;;;;;6183401;28;20189;-67
2022/03/19 11:18:23;;;;;;;19.60;9.32;;;;;;;;;;6183425;28;20140;-68
2022/03/19 11:21:26;;;;;;;28.13;11.25;;;;;;;;;;6184823;28;20069;-71
2022/03/19 11:24:29;;;;;;;;;;;;;;;;;;6185037;28;20058;-70
2022/03/19 11:27:32;;;;;;;23.92;11.02;;;;;;;;;;6181588;28;20457;-71
2022/03/19 11:30:41;;;;;;;47.55;26.92;;;;;;;;;;6185422;28;20100;-68
2022/03/19 11:33:42;;;;;;;26.98;14.40;;;;;;;;;;6185640;28;20050;-65
2022/03/19 11:36:57;;;;;;;20.83;12.05;;;;;;;;;;6178822;28;20146;-65
2022/03/19 11:40:20;;;;;;;13.52;7.20;;;;;;;;;;6184129;28;20054;-65
2022/03/19 11:43:24;;;;;;;13.95;7.90;;;;;;;;;;6184294;28;20141;-66
2022/03/19 11:46:25;;;;;;;21.13;9.48;;;;;;;;;;6183802;28;20050;-67
2022/03/19 11:49:44;;;;;;;23.23;11.85;;;;;;;;;;6183548;28;20105;-65
2022/03/19 11:52:54;;;;;;;20.92;10.02;;;;;;;;;;6181680;28;20042;-65
2022/03/19 11:56:03;;;;;;;19.90;9.30;;;;;;;;;;6185682;28;20078;-62
2022/03/19 11:59:09;;;;;;;23.20;8.93;;;;;;;;;;6186019;28;20054;-65
2022/03/19 12:02:12;;;;;;;18.60;9.30;;;;;;;;;;6184271;28;20092;-64
2022/03/19 12:05:16;;;;;;;15.50;8.02;;;;;;;;;;6183545;28;20054;-66
2022/03/19 12:08:19;;;;;;;15.70;8.65;;;;;;;;;;6183350;28;20512;-65
2022/03/19 12:11:22;;;;;;;15.63;8.73;;;;;;;;;;6184422;28;20141;-65
2022/03/19 12:14:23;;;;;;;18.70;9.52;;;;;;;;;;6182417;28;20050;-66
2022/03/19 12:17:26;;;;;;;19.75;10.40;;;;;;;;;;6181314;28;20145;-67
2022/03/19 12:20:27;;;;;;;20.13;10.85;;;;;;;;;;6186512;28;20061;-65
2022/03/19 12:23:38;;;;;;;22.92;10.40;;;;;;;;;;6182503;28;20580;-67
2022/03/19 12:26:43;;;;;;;20.75;10.48;;;;;;;;;;6184422;28;20088;-65
2022/03/19 12:29:44;;;;;;;20.02;9.50;;;;;;;;;;6181516;28;20076;-66
2022/03/19 12:32:49;;;;;;;19.90;10.27;;;;;;;;;;6183490;28;20050;-66
2022/03/19 12:35:50;;;;;;;23.60;11.68;;;;;;;;;;6182169;28;20050;-67
2022/03/19 12:38:52;;;;;;;21.20;11.43;;;;;;;;;;6182931;28;20183;-67
2022/03/19 12:41:53;;;;;;;19.20;10.23;;;;;;;;;;6182128;28;20050;-68
2022/03/19 12:44:58;;;;;;;23.75;12.82;;;;;;;;;;6182839;28;21704;-67
2022/03/19 12:47:59;;;;;;;23.38;12.68;;;;;;;;;;6182650;28;20137;-66
2022/03/19 12:51:01;;;;;;;22.60;11.50;;;;;;;;;;6183731;28;20083;-65
2022/03/19 12:54:16;;;;;;;28.25;12.95;;;;;;;;;;6187544;28;20727;-68
2022/03/19 12:57:25;;;;;;;19.05;10.07;;;;;;;;;;6186020;28;20050;-69
2022/03/19 13:00:25;;;;;;;19.98;10.18;;;;;;;;;;6183083;28;20055;-68
2022/03/19 13:03:30;;;;;;;22.88;10.88;;;;;;;;;;6182879;28;20112;-69
2022/03/19 13:06:41;;;;;;;25.88;12.35;;;;;;;;;;6181865;28;20054;-67
2022/03/19 13:09:42;;;;;;;22.58;11.15;;;;;;;;;;6181011;28;20499;-66
2022/03/19 13:12:43;;;;;;;25.45;12.23;;;;;;;;;;6183518;28;20479;-65
2022/03/19 13:15:48;;;;;;;19.83;11.23;;;;;;;;;;6182092;28;20074;-66
2022/03/19 13:18:56;;;;;;;22.00;10.77;;;;;;;;;;6181556;28;20054;-68
2022/03/19 13:21:57;;;;;;;29.38;11.30;;;;;;;;;;6183541;28;20051;-69
2022/03/19 13:24:59;;;;;;;20.23;10.27;;;;;;;;;;6182270;28;20058;-70
2022/03/19 13:28:04;;;;;;;27.42;11.30;;;;;;;;;;6181706;28;20658;-70
2022/03/19 13:31:08;;;;;;;21.30;11.30;;;;;;;;;;6184582;28;20053;-67
2022/03/19 13:34:17;;;;;;;21.63;11.40;;;;;;;;;;6183543;28;20064;-69
2022/03/19 13:37:23;;;;;;;24.58;10.80;;;;;;;;;;6182800;28;20062;-69
2022/03/19 13:40:29;;;;;;;19.65;9.88;;;;;;;;;;6185428;28;21659;-68
2022/03/19 13:43:36;;;;;;;21.90;11.35;;;;;;;;;;6185447;28;20058;-66
2022/03/19 13:46:37;;;;;;;23.27;11.00;;;;;;;;;;6186062;28;20171;-67
2022/03/19 13:50:03;;;;;;;23.05;11.68;;;;;;;;;;6182316;28;20046;-71
2022/03/19 13:53:05;;;;;;;24.73;12.25;;;;;;;;;;6181597;28;20497;-66
2022/03/19 13:56:06;;;;;;;24.55;12.05;;;;;;;;;;6183259;28;20050;-68
2022/03/19 13:59:07;;;;;;;20.73;11.32;;;;;;;;;;6184500;28;20453;-67
2022/03/19 14:02:07;;;;;;;24.95;12.07;;;;;;;;;;6185611;28;20222;-70
2022/03/19 14:05:11;;;;;;;25.38;11.57;;;;;;;;;;6185359;28;20050;-64
2022/03/19 14:08:15;;;;;;;31.30;14.05;;;;;;;;;;6185636;28;20125;-68
2022/03/19 14:11:15;;;;;;;19.63;11.55;;;;;;;;;;6183704;28;20137;-68
2022/03/19 14:14:17;;;;;;;22.90;12.43;;;;;;;;;;6186219;28;20054;-72
2022/03/19 14:17:18;;;;;;;21.33;13.18;;;;;;;;;;6185604;28;20053;-67
2022/03/19 14:20:21;;;;;;;23.48;11.80;;;;;;;;;;6189838;28;20137;-71
2022/03/19 14:23:23;;;;;;;23.40;10.88;;;;;;;;;;6187093;28;20093;-65
2022/03/19 14:26:24;;;;;;;18.10;10.65;;;;;;;;;;6186216;28;20582;-69
2022/03/19 14:29:25;;;;;;;21.95;12.00;;;;;;;;;;6187949;28;20062;-69
2022/03/19 14:32:25;;;;;;;22.77;10.20;;;;;;;;;;6183935;28;20425;-68
2022/03/19 14:35:42;;;;;;;22.65;10.98;;;;;;;;;;6186525;28;20054;-70
2022/03/19 14:38:45;;;;;;;20.77;10.60;;;;;;;;;;6182039;28;20086;-67
2022/03/19 14:41:45;;;;;;;18.83;9.48;;;;;;;;;;6185014;28;20046;-67
2022/03/19 14:44:46;;;;;;;17.17;9.25;;;;;;;;;;6188321;28;20396;-68
2022/03/19 14:47:47;;;;;;;18.20;10.30;;;;;;;;;;6185358;28;20386;-69
2022/03/19 14:50:49;;;;;;;20.23;10.25;;;;;;;;;;6186251;28;20060;-67
2022/03/19 14:53:50;;;;;;;17.95;10.10;;;;;;;;;;6187533;28;20137;-66
2022/03/19 14:56:50;;;;;;;18.63;10.00;;;;;;;;;;6186307;28;20278;-67
2022/03/19 14:59:52;;;;;;;23.75;10.80;;;;;;;;;;6183650;28;20116;-65
2022/03/19 15:02:52;;;;;;;24.52;11.02;;;;;;;;;;6187353;28;20672;-67
2022/03/19 15:05:53;;;;;;;28.63;13.77;;;;;;;;;;6187324;28;20050;-69
2022/03/19 15:08:56;;;;;;;21.85;10.48;;;;;;;;;;6186966;28;20065;-67
2022/03/19 15:11:57;;;;;;;19.25;10.23;;;;;;;;;;6188756;28;20587;-69
2022/03/19 15:14:58;;;;;;;20.23;9.70;;;;;;;;;;6185739;28;20054;-64
2022/03/19 15:17:59;;;;;;;22.77;9.88;;;;;;;;;;6171570;28;20125;-69
2022/03/19 15:21:01;;;;;;;30.40;15.63;;;;;;;;;;6173449;28;20468;-70
2022/03/19 15:24:03;;;;;;;25.25;13.20;;;;;;;;;;6171801;28;20069;-67
2022/03/19 15:27:04;;;;;;;31.52;15.48;;;;;;;;;;6172395;28;20050;-67
2022/03/19 15:30:07;;;;;;;24.35;13.05;;;;;;;;;;6174460;28;20050;-68
2022/03/19 15:33:07;;;;;;;39.30;20.42;;;;;;;;;;6172831;28;20042;-64
2022/03/19 15:36:12;;;;;;;32.78;16.77;;;;;;;;;;6172762;28;20130;-64
2022/03/19 15:39:13;;;;;;;29.20;15.73;;;;;;;;;;6169610;28;20054;-66
2022/03/19 15:42:14;;;;;;;32.38;15.35;;;;;;;;;;6176878;28;21328;-67
2022/03/19 15:45:15;;;;;;;26.95;13.25;;;;;;;;;;6173699;28;20053;-69
2022/03/19 15:48:16;;;;;;;22.48;11.82;;;;;;;;;;6172771;28;20051;-66
2022/03/19 15:51:17;;;;;;;22.90;11.13;;;;;;;;;;6172522;28;20042;-68
2022/03/19 15:54:17;;;;;;;21.92;10.63;;;;;;;;;;6172467;28;20050;-65
2022/03/19 15:57:18;;;;;;;20.83;10.07;;;;;;;;;;6167853;28;20453;-66
2022/03/19 16:00:20;;;;;;;23.53;10.83;;;;;;;;;;6173257;28;20078;-68
2022/03/19 16:03:21;;;;;;;21.83;10.52;;;;;;;;;;6173742;28;20209;-69
2022/03/19 16:06:22;;;;;;;22.17;10.80;;;;;;;;;;6177719;28;20058;-69
2022/03/19 16:09:23;;;;;;;24.20;10.90;;;;;;;;;;6172573;28;20577;-67
2022/03/19 16:12:23;;;;;;;20.65;10.75;;;;;;;;;;6172830;28;20544;-66
2022/03/19 16:15:24;;;;;;;23.50;11.00;;;;;;;;;;6170108;28;20100;-67
2022/03/19 16:18:25;;;;;;;22.23;10.68;;;;;;;;;;6171129;28;20050;-66
2022/03/19 16:21:26;;;;;;;24.70;10.95;;;;;;;;;;6167466;28;20833;-63
2022/03/19 16:24:28;;;;;;;25.63;11.73;;;;;;;;;;6169742;28;20494;-65
2022/03/19 16:27:29;;;;;;;30.27;11.93;;;;;;;;;;6170423;28;20535;-63
2022/03/19 16:30:32;;;;;;;26.93;11.93;;;;;;;;;;6170257;28;20058;-65
2022/03/19 16:33:33;;;;;;;29.92;12.68;;;;;;;;;;6167626;28;20293;-63
2022/03/19 16:36:35;;;;;;;30.05;15.15;;;;;;;;;;6166550;28;20058;-64
2022/03/19 16:39:36;;;;;;;;;;;;;;;;;;6165621;28;20109;-61
2022/03/19 16:42:37;;;;;;;29.20;13.25;;;;;;;;;;6165467;28;19926;-62
2022/03/19 16:45:39;;;;;;;26.70;12.20;;;;;;;;;;6166766;28;20190;-63
2022/03/19 16:48:41;;;;;;;31.37;14.30;;;;;;;;;;6169228;28;20057;-63
2022/03/19 16:51:41;;;;;;;27.95;12.48;;;;;;;;;;6172508;28;20054;-63
2022/03/19 16:54:42;;;;;;;24.27;12.02;;;;;;;;;;6166644;28;20073;-63
2022/03/19 16:57:42;;;;;;;23.45;11.70;;;;;;;;;;6167876;28;20736;-63
2022/03/19 17:00:43;;;;;;;23.60;12.02;;;;;;;;;;6170788;28;20054;-64
2022/03/19 17:03:44;;;;;;;27.40;11.98;;;;;;;;;;6167447;28;20063;-64
2022/03/19 17:06:45;;;;;;;29.17;13.00;;;;;;;;;;6169781;28;20054;-63
2022/03/19 17:09:45;;;;;;;38.15;16.92;;;;;;;;;;6169117;28;20894;-64
2022/03/19 17:12:46;;;;;;;41.22;17.45;;;;;;;;;;6167838;28;20141;-63
2022/03/19 17:15:47;;;;;;;50.28;20.17;;;;;;;;;;6169182;28;20051;-63
2022/03/19 17:18:48;;;;;;;41.28;17.80;;;;;;;;;;6168228;28;20078;-67
2022/03/19 17:21:48;;;;;;;35.58;16.35;;;;;;;;;;6168790;28;20832;-65
2022/03/19 17:24:49;;;;;;;44.28;18.25;;;;;;;;;;6166551;28;20054;-65
2022/03/19 17:27:53;;;;;;;45.67;19.52;;;;;;;;;;6166026;28;20050;-65
2022/03/19 17:30:54;;;;;;;44.70;17.75;;;;;;;;;;6163865;28;20043;-67
2022/03/19 17:33:55;;;;;;;40.83;16.95;;;;;;;;;;6170101;28;20787;-69
2022/03/19 17:36:56;;;;;;;37.65;17.23;;;;;;;;;;6172290;28;20059;-66
2022/03/19 17:39:56;;;;;;;43.35;18.83;;;;;;;;;;6172458;28;20046;-67
2022/03/19 17:42:57;;;;;;;43.58;17.75;;;;;;;;;;6174221;28;20058;-67
2022/03/19 17:45:58;;;;;;;42.00;18.15;;;;;;;;;;6173476;28;20058;-66
2022/03/19 17:48:59;;;;;;;41.70;17.00;;;;;;;;;;6172151;28;20061;-68
2022/03/19 17:52:00;;;;;;;43.25;18.60;;;;;;;;;;6175112;28;20656;-64
2022/03/19 17:55:04;;;;;;;39.03;18.58;;;;;;;;;;6173726;28;20149;-66
2022/03/19 17:58:05;;;;;;;42.05;19.13;;;;;;;;;;6177020;28;20057;-63
2022/03/19 18:01:06;;;;;;;40.10;17.90;;;;;;;;;;6171903;28;20050;-63